Time;durP1;ratioP1;P1;durP2;ratioP2;P2;SDS_P1;SDS_P2;PMS_P1;PMS_P2;Temp;Humidity;BMP_temperature;BMP_pressure;BME280_temperature;BME280_humidity;BME280_pressure;Samples;Min_cycle;Max_cycle;Signal;HPM_P1;HPM_P2
2022/01/07 00:01:12;;;;;;;3.67;2.00;;;1.60;99.90;;;1.68;99.48;101036.00;4963227;28;20652;-65
2022/01/07 00:03:40;;;;;;;3.00;2.30;;;1.60;99.90;;;1.64;99.47;101022.38;4938167;28;20255;-65
2022/01/07 00:06:07;;;;;;;3.88;0.95;;;1.60;99.90;;;1.65;99.73;101033.50;4971681;28;20204;-65
2022/01/07 00:08:34;;;;;;;2.97;2.13;;;1.50;99.90;;;1.62;99.56;101028.47;4955586;28;20294;-66
2022/01/07 00:11:01;;;;;;;0.93;0.73;;;1.50;99.90;;;1.64;100.00;101021.56;4971503;28;20703;-65
2022/01/07 00:13:28;;;;;;;2.58;1.85;;;1.60;99.90;;;1.66;99.46;101024.91;4953689;28;20212;-66
2022/01/07 00:15:56;;;;;;;2.05;1.85;;;1.60;99.90;;;1.64;99.80;101018.97;4938789;28;20204;-65
2022/01/07 00:18:23;;;;;;;1.10;1.10;;;1.50;99.90;;;1.58;100.00;101007.97;4970862;28;20200;-65
2022/01/07 00:20:52;;;;;;;0.50;0.50;;;1.50;99.90;;;1.54;100.00;101008.94;4972345;28;20258;-65
2022/01/07 00:23:20;;;;;;;2.67;1.23;;;1.50;99.90;;;1.57;100.00;101013.16;4971522;28;20226;-66
2022/01/07 00:25:47;;;;;;;5.90;3.58;;;1.50;99.90;;;1.58;99.80;101007.97;4972102;28;20204;-66
2022/01/07 00:28:14;;;;;;;2.72;2.22;;;1.50;99.90;;;1.61;100.00;101008.75;4970151;28;20197;-65
2022/01/07 00:30:41;;;;;;;11.02;1.48;;;1.50;99.90;;;1.60;100.00;101005.34;4942447;28;20226;-66
2022/01/07 00:33:08;;;;;;;2.55;1.33;;;1.50;99.90;;;1.49;100.00;101003.09;4962504;28;20207;-66
2022/01/07 00:35:35;;;;;;;6.20;2.63;;;1.50;99.90;;;1.58;99.95;100998.59;4934792;29;20208;-65
2022/01/07 00:38:04;;;;;;;3.17;2.03;;;1.50;99.90;;;1.55;100.00;100994.38;4935158;29;20677;-65
2022/01/07 00:40:31;;;;;;;1.98;1.83;;;1.50;99.90;;;1.51;99.96;100993.59;4936250;29;20319;-66
2022/01/07 00:42:58;;;;;;;0.30;0.30;;;1.50;99.90;;;1.50;100.00;100996.22;4941224;28;20215;-65
2022/01/07 00:45:26;;;;;;;2.35;1.40;;;1.40;99.90;;;1.43;100.00;100999.84;4955748;28;20217;-63
2022/01/07 00:47:55;;;;;;;4.57;3.13;;;1.40;99.90;;;1.47;100.00;100999.72;4956199;28;20570;-65
2022/01/07 00:50:25;;;;;;;2.20;2.00;;;1.40;99.90;;;1.48;100.00;100998.84;4975877;28;20616;-66
2022/01/07 00:52:53;;;;;;;4.38;2.90;;;1.40;99.90;;;1.50;100.00;101002.22;4993998;28;20210;-65
2022/01/07 00:55:20;;;;;;;5.20;2.63;;;1.40;99.90;;;1.51;100.00;101006.44;4986329;28;20222;-66
2022/01/07 00:57:48;;;;;;;4.05;3.08;;;1.40;99.90;;;1.58;100.00;101004.56;4948665;28;20204;-66
2022/01/07 01:00:19;;;;;;;1.63;1.50;;;1.50;99.90;;;1.64;99.89;101009.50;4956549;28;20220;-65
2022/01/07 01:02:47;;;;;;;2.67;1.67;;;1.60;99.90;;;1.64;99.30;101004.38;4957117;28;20230;-66
2022/01/07 01:05:15;;;;;;;2.08;1.77;;;1.60;99.90;;;1.67;99.99;101003.44;4974290;28;20196;-66
2022/01/07 01:07:42;;;;;;;5.18;2.67;;;1.60;99.90;;;1.65;99.01;101005.22;4958391;28;20204;-66
2022/01/07 01:10:13;;;;;;;7.53;2.35;;;1.50;99.90;;;1.63;99.18;101001.84;4975611;28;20686;-65
2022/01/07 01:12:44;;;;;;;6.15;2.53;;;1.50;99.90;;;1.65;99.07;101005.22;4957701;28;20208;-65
2022/01/07 01:15:15;;;;;;;2.15;1.95;;;1.60;99.90;;;1.62;99.46;101003.56;4973164;28;20200;-65
2022/01/07 01:17:43;;;;;;;1.52;1.13;;;1.50;99.90;;;1.64;98.89;100998.41;4957098;28;20208;-65
2022/01/07 01:20:11;;;;;;;1.55;1.45;;;1.50;99.90;;;1.65;98.72;101006.06;4974621;28;20819;-65
2022/01/07 01:22:40;;;;;;;3.95;1.98;;;1.60;99.90;;;1.54;99.01;100993.53;4974775;28;20232;-63
2022/01/07 01:25:08;;;;;;;1.95;1.13;;;1.50;99.90;;;1.60;99.37;100996.81;4939919;28;20662;-65
2022/01/07 01:27:35;;;;;;;3.38;2.47;;;1.50;99.90;;;1.54;98.90;100990.09;4948619;28;20295;-65
2022/01/07 01:30:07;;;;;;;3.88;2.67;;;1.50;99.90;;;1.51;99.42;100985.88;4941933;28;20220;-65
2022/01/07 01:32:35;;;;;;;2.15;2.05;;;1.40;99.90;;;1.54;99.56;100983.22;4972582;28;20215;-64
2022/01/07 01:35:05;;;;;;;3.72;1.80;;;1.50;99.90;;;1.56;99.47;100986.59;4963102;28;20654;-65
2022/01/07 01:37:33;;;;;;;3.45;2.72;;;1.50;99.90;;;1.58;99.19;100982.25;4955624;29;20205;-65
2022/01/07 01:40:00;;;;;;;3.63;1.70;;;1.50;99.90;;;1.55;99.25;100979.75;4954593;28;20225;-65
2022/01/07 01:42:27;;;;;;;1.42;1.17;;;1.50;99.90;;;1.52;100.00;100977.28;4955043;28;20219;-65
2022/01/07 01:44:54;;;;;;;1.27;0.95;;;1.50;99.90;;;1.53;99.50;100975.56;4952584;28;20283;-65
2022/01/07 01:47:21;;;;;;;8.80;3.47;;;1.50;99.90;;;1.49;99.56;100972.22;4974752;28;20208;-65
2022/01/07 01:49:48;;;;;;;1.02;0.98;;;1.40;99.90;;;1.51;100.00;100974.78;4972564;28;20646;-65
2022/01/07 01:52:16;;;;;;;2.22;1.98;;;1.40;99.90;;;1.52;100.00;100973.88;4973510;28;20216;-65
2022/01/07 01:54:43;;;;;;;2.20;2.00;;;1.50;99.90;;;1.55;100.00;100974.63;4956202;28;20204;-64
2022/01/07 01:57:11;;;;;;;1.98;1.52;;;1.50;99.90;;;1.59;99.66;100972.81;4957112;28;20200;-65
2022/01/07 01:59:38;;;;;;;3.20;2.33;;;1.50;99.90;;;1.63;99.40;100971.84;4960042;28;20252;-65
2022/01/07 02:02:07;;;;;;;2.20;2.00;;;1.50;99.90;;;1.63;99.45;100970.97;4954762;28;20239;-65
2022/01/07 02:04:36;;;;;;;2.20;1.70;;;1.50;99.90;;;1.65;99.25;100964.91;4973043;28;20236;-65
2022/01/07 02:07:03;;;;;;;2.58;2.20;;;1.60;99.90;;;1.66;99.26;100956.31;4968140;28;20196;-65
2022/01/07 02:09:35;;;;;;;1.85;1.30;;;1.60;99.90;;;1.68;99.10;100957.13;4937989;28;20647;-65
2022/01/07 02:12:09;;;;;;;2.55;2.03;;;1.60;99.90;;;1.66;99.06;100955.47;4922568;28;20200;-65
2022/01/07 02:14:37;;;;;;;1.40;1.40;;;1.60;99.90;;;1.66;99.21;100947.75;4964095;28;20208;-65
2022/01/07 02:17:09;;;;;;;6.75;1.77;;;1.60;99.90;;;1.68;98.69;100951.13;4972280;28;20206;-65
2022/01/07 02:19:39;;;;;;;2.17;1.70;;;1.60;99.90;;;1.69;98.68;100939.94;4950449;28;20242;-65
2022/01/07 02:22:07;;;;;;;2.28;1.63;;;1.60;99.90;;;1.72;98.28;100934.69;4972632;28;20228;-65
2022/01/07 02:24:35;;;;;;;4.25;2.22;;;1.60;99.90;;;1.70;98.18;100931.34;4973341;28;20259;-65
2022/01/07 02:27:03;;;;;;;0.93;0.90;;;1.60;99.90;;;1.65;98.56;100926.31;4974201;28;20291;-64
2022/01/07 02:29:30;;;;;;;0.88;0.88;;;1.60;99.90;;;1.67;98.18;100915.97;4952005;28;20283;-65
2022/01/07 02:31:57;;;;;;;1.25;1.15;;;1.60;99.90;;;1.62;98.34;100916.13;4967400;28;20576;-64
2022/01/07 02:34:24;;;;;;;1.20;1.20;;;1.60;99.90;;;1.63;98.45;100899.81;4956083;28;20675;-64
2022/01/07 02:36:51;;;;;;;1.92;1.75;;;1.60;99.90;;;1.61;98.89;100911.03;4972096;28;20218;-64
2022/01/07 02:39:19;;;;;;;1.58;1.42;;;1.60;99.90;;;1.55;98.87;100905.19;4956066;28;20212;-62
2022/01/07 02:41:46;;;;;;;4.97;2.38;;;1.50;99.90;;;1.56;99.61;100896.59;4973385;28;20200;-64
2022/01/07 02:44:13;;;;;;;1.02;1.02;;;1.50;99.90;;;1.59;99.08;100911.09;4953991;28;20599;-64
2022/01/07 02:46:41;;;;;;;0.85;0.85;;;1.50;99.90;;;1.57;99.69;100915.44;4971978;28;20656;-64
2022/01/07 02:49:14;;;;;;;2.42;2.22;;;1.50;99.90;;;1.54;99.73;100911.22;4971444;28;20289;-63
2022/01/07 02:51:43;;;;;;;5.90;2.25;;;1.50;99.90;;;1.58;99.60;100919.69;4955824;28;20224;-64
2022/01/07 02:54:10;;;;;;;2.17;1.88;;;1.50;99.90;;;1.61;99.89;100916.19;4973069;28;20240;-64
2022/01/07 02:56:38;;;;;;;2.90;2.33;;;1.50;99.90;;;1.54;99.84;100911.22;4954883;28;20218;-64
2022/01/07 02:59:08;;;;;;;0.75;0.75;;;1.50;99.90;;;1.58;99.91;100914.53;4971869;28;20200;-64
2022/01/07 03:01:37;;;;;;;2.10;1.58;;;1.50;99.90;;;1.54;100.00;100913.81;4952830;28;20344;-64
2022/01/07 03:04:06;;;;;;;3.60;2.35;;;1.50;99.90;;;1.52;100.00;100909.59;4936037;29;20255;-63
2022/01/07 03:06:35;;;;;;;4.97;2.35;;;1.50;99.90;;;1.49;100.00;100910.50;4936802;29;20752;-64
2022/01/07 03:09:05;;;;;;;1.30;1.20;;;1.50;99.90;;;1.51;100.00;100906.16;4952632;28;20200;-63
2022/01/07 03:11:33;;;;;;;1.45;1.35;;;1.50;99.90;;;1.55;100.00;100907.75;4936260;29;20688;-64
2022/01/07 03:14:00;;;;;;;12.93;3.75;;;1.50;99.90;;;1.59;100.00;100913.66;4936376;29;20209;-64
2022/01/07 03:16:27;;;;;;;5.05;2.95;;;1.50;99.90;;;1.63;100.00;100906.69;4953306;28;20209;-64
2022/01/07 03:18:54;;;;;;;6.75;2.95;;;1.60;99.90;;;1.60;100.00;100904.22;4952262;29;20212;-64
2022/01/07 03:21:20;;;;;;;0.55;0.40;;;1.50;99.90;;;1.58;100.00;100903.44;4947936;28;20315;-63
2022/01/07 03:23:47;;;;;;;2.80;2.30;;;1.50;99.90;;;1.61;100.00;100903.31;4952102;28;20259;-64
2022/01/07 03:26:14;;;;;;;7.15;1.85;;;1.60;99.90;;;1.56;100.00;100894.00;4957218;28;20584;-64
2022/01/07 03:28:43;;;;;;;1.90;1.58;;;1.50;99.90;;;1.54;100.00;100893.22;4953994;28;20696;-64
2022/01/07 03:31:10;;;;;;;2.15;1.95;;;1.50;99.90;;;1.49;100.00;100886.56;4939596;29;20808;-64
2022/01/07 03:33:37;;;;;;;5.18;2.80;;;1.50;99.90;;;1.46;100.00;100878.91;4965826;28;20204;-63
2022/01/07 03:36:04;;;;;;;2.13;1.88;;;1.50;99.90;;;1.47;100.00;100881.44;4971913;28;20219;-64
2022/01/07 03:38:32;;;;;;;1.50;1.40;;;1.50;99.90;;;1.40;100.00;100882.53;4921915;28;20302;-64
2022/01/07 03:40:59;;;;;;;2.58;2.38;;;1.30;99.90;;;1.47;100.00;100878.88;4953745;28;20231;-64
2022/01/07 03:43:26;;;;;;;1.70;1.60;;;1.40;99.90;;;1.52;100.00;100876.16;4938931;28;20232;-64
2022/01/07 03:45:53;;;;;;;3.03;2.03;;;1.40;99.90;;;1.50;100.00;100877.94;4970618;28;20200;-64
2022/01/07 03:48:20;;;;;;;1.05;1.05;;;1.40;99.90;;;1.46;100.00;100877.19;4971159;28;20204;-64
2022/01/07 03:50:47;;;;;;;2.70;2.47;;;1.40;99.90;;;1.43;100.00;100874.72;4970196;28;20220;-63
2022/01/07 03:53:15;;;;;;;2.60;1.45;;;1.40;99.90;;;1.43;100.00;100879.84;4971577;28;20691;-64
2022/01/07 03:55:42;;;;;;;0.82;0.80;;;1.40;99.90;;;1.42;100.00;100878.19;4970458;28;20577;-64
2022/01/07 03:58:09;;;;;;;2.72;1.95;;;1.40;99.90;;;1.39;100.00;100880.84;4971385;28;20208;-64
2022/01/07 04:00:40;;;;;;;3.00;1.77;;;1.40;99.90;;;1.52;100.00;100881.28;4969289;28;20638;-64
2022/01/07 04:03:12;;;;;;;7.15;2.50;;;1.50;99.90;;;1.50;100.00;100868.50;4971401;28;20219;-64
2022/01/07 04:05:39;;;;;;;1.65;1.48;;;1.50;99.90;;;1.47;100.00;100868.56;4970928;28;20196;-64
2022/01/07 04:08:07;;;;;;;7.53;2.60;;;1.50;99.90;;;1.49;100.00;100868.56;4954301;28;20583;-64
2022/01/07 04:10:35;;;;;;;2.47;1.42;;;1.40;99.90;;;1.41;100.00;100871.34;4971683;28;20251;-64
2022/01/07 04:13:02;;;;;;;3.60;2.80;;;1.40;99.90;;;1.37;100.00;100869.75;4971751;28;20206;-64
2022/01/07 04:15:30;;;;;;;3.80;2.50;;;1.40;99.90;;;1.42;100.00;100865.31;4971206;28;20214;-64
2022/01/07 04:17:57;;;;;;;3.90;2.00;;;1.40;99.90;;;1.38;100.00;100868.88;4933648;29;20668;-64
2022/01/07 04:20:31;;;;;;;1.13;1.08;;;1.40;99.90;;;1.33;100.00;100870.75;4934914;29;20224;-64
2022/01/07 04:23:00;;;;;;;0.82;0.82;;;1.30;99.90;;;1.36;100.00;100873.19;4938509;29;20208;-64
2022/01/07 04:25:28;;;;;;;1.63;1.52;;;1.30;99.90;;;1.32;100.00;100874.19;4939835;28;20575;-64
2022/01/07 04:28:01;;;;;;;3.67;2.33;;;1.30;99.90;;;1.37;100.00;100877.47;4955506;29;20817;-64
2022/01/07 04:30:33;;;;;;;1.70;1.60;;;1.40;99.90;;;1.37;100.00;100872.34;4956417;28;20225;-64
2022/01/07 04:33:02;;;;;;;0.70;0.70;;;1.30;99.90;;;1.37;100.00;100876.63;4948436;28;20210;-64
2022/01/07 04:35:32;;;;;;;5.45;2.70;;;1.40;99.90;;;1.26;100.00;100871.81;4957345;28;20684;-64
2022/01/07 04:37:59;;;;;;;2.53;0.82;;;1.30;99.90;;;1.32;100.00;100869.03;4957391;28;20200;-64
2022/01/07 04:40:27;;;;;;;2.00;1.85;;;1.30;99.90;;;1.36;100.00;100868.06;4958981;28;20230;-64
2022/01/07 04:42:54;;;;;;;3.88;2.88;;;1.30;99.90;;;1.37;100.00;100867.19;4975065;28;20210;-64
2022/01/07 04:45:21;;;;;;;1.92;1.73;;;1.30;99.90;;;1.34;100.00;100872.41;4959022;28;20231;-64
2022/01/07 04:47:48;;;;;;;3.13;1.65;;;1.30;99.90;;;1.40;100.00;100864.53;4956336;28;20818;-63
2022/01/07 04:50:19;;;;;;;4.25;3.05;;;1.30;99.90;;;1.33;100.00;100864.75;4964380;28;20220;-64
2022/01/07 04:52:46;;;;;;;2.90;1.80;;;1.30;99.90;;;1.27;100.00;100863.22;4966902;28;20283;-64
2022/01/07 04:55:20;;;;;;;1.50;1.40;;;1.30;99.90;;;1.27;100.00;100865.78;4956654;28;20204;-64
2022/01/07 04:57:49;;;;;;;2.55;2.35;;;1.20;99.90;;;1.25;100.00;100859.84;4975295;28;20298;-64
2022/01/07 05:00:19;;;;;;;4.63;2.50;;;1.20;99.90;;;1.24;100.00;100858.16;4974732;28;20232;-64
2022/01/07 05:02:47;;;;;;;4.63;3.13;;;1.30;99.90;;;1.31;100.00;100856.25;4956081;28;20595;-64
2022/01/07 05:05:14;;;;;;;26.75;1.80;;;1.30;99.90;;;1.32;100.00;100851.06;4939423;29;20232;-64
2022/01/07 05:07:41;;;;;;;2.25;1.45;;;1.30;99.90;;;1.37;100.00;100850.91;4928470;29;20201;-64
2022/01/07 05:10:11;;;;;;;3.55;1.60;;;1.40;99.90;;;1.37;100.00;100851.75;4954435;28;20236;-64
2022/01/07 05:12:39;;;;;;;3.65;2.42;;;1.40;99.90;;;1.35;100.00;100844.97;4954074;29;20227;-64
2022/01/07 05:15:07;;;;;;;1.27;0.77;;;1.40;99.90;;;1.41;100.00;100840.50;4943769;28;20229;-64
2022/01/07 05:17:34;;;;;;;1.52;1.42;;;1.40;99.90;;;1.50;99.76;100836.78;4973840;28;20296;-64
2022/01/07 05:20:02;;;;;;;0.95;0.73;;;1.50;99.90;;;1.53;99.48;100837.53;4973849;28;20220;-64
2022/01/07 05:22:29;;;;;;;0.60;0.60;;;1.50;99.90;;;1.54;98.79;100823.78;4972882;28;20199;-64
2022/01/07 05:24:56;;;;;;;1.40;0.82;;;1.50;99.90;;;1.53;99.11;100832.38;4974188;28;20724;-64
2022/01/07 05:27:23;;;;;;;0.70;0.70;;;1.50;99.90;;;1.48;99.48;100821.41;4975093;28;20569;-64
2022/01/07 05:29:50;;;;;;;7.85;2.05;;;1.50;99.90;;;1.54;99.26;100823.78;4974635;28;20227;-64
2022/01/07 05:32:17;;;;;;;6.05;3.30;;;1.50;99.90;;;1.57;98.43;100825.44;4973311;28;20671;-64
2022/01/07 05:34:44;;;;;;;1.83;1.13;;;1.50;99.90;;;1.59;98.43;100823.66;4955183;28;20574;-64
2022/01/07 05:37:11;;;;;;;8.48;1.73;;;1.60;99.90;;;1.51;98.75;100823.88;4973005;28;20604;-64
2022/01/07 05:39:38;;;;;;;2.65;1.08;;;1.50;99.90;;;1.52;98.87;100810.16;4973826;28;20239;-64
2022/01/07 05:42:07;;;;;;;5.28;3.33;;;1.50;99.90;;;1.55;98.77;100807.44;4957343;28;20267;-64
2022/01/07 05:44:34;;;;;;;2.20;2.00;;;1.50;99.90;;;1.58;98.50;100813.41;4942809;29;20321;-64
2022/01/07 05:47:01;;;;;;;1.25;1.15;;;1.60;99.90;;;1.58;98.60;100814.25;4948199;28;20208;-64
2022/01/07 05:49:28;;;;;;;3.63;1.58;;;1.60;99.90;;;1.54;98.59;100818.66;4970847;28;20231;-64
2022/01/07 05:51:55;;;;;;;2.20;1.88;;;1.60;99.90;;;1.54;98.59;100816.06;4974219;28;20196;-64
2022/01/07 05:54:22;;;;;;;2.90;1.65;;;1.50;99.90;;;1.56;98.43;100809.16;4973535;28;20219;-64
2022/01/07 05:56:49;;;;;;;3.92;2.47;;;1.60;99.90;;;1.58;98.59;100800.56;4952042;28;20204;-64
2022/01/07 05:59:16;;;;;;;2.00;1.90;;;1.60;99.90;;;1.65;98.33;100800.28;4974321;28;20203;-65
2022/01/07 06:01:43;;;;;;;2.80;1.02;;;1.60;99.90;;;1.61;98.11;100805.59;4972674;28;20211;-64
2022/01/07 06:04:10;;;;;;;4.35;2.65;;;1.60;99.90;;;1.54;98.80;100808.38;4974114;28;20223;-64
2022/01/07 06:06:38;;;;;;;2.47;2.28;;;1.60;99.90;;;1.55;99.05;100801.50;4972726;28;20204;-64
2022/01/07 06:09:04;;;;;;;2.35;1.98;;;1.60;99.90;;;1.60;98.78;100798.78;4957314;28;20204;-64
2022/01/07 06:11:31;;;;;;;3.22;2.17;;;1.60;99.90;;;1.60;99.08;100797.03;4972108;28;20724;-64
2022/01/07 06:13:58;;;;;;;2.10;1.90;;;1.60;99.90;;;1.62;98.73;100794.44;4965101;28;20229;-64
2022/01/07 06:16:25;;;;;;;1.65;1.55;;;1.60;99.90;;;1.61;98.97;100782.44;4955698;28;20311;-64
2022/01/07 06:18:58;;;;;;;1.75;1.23;;;1.60;99.90;;;1.62;98.65;100787.53;4966757;28;20883;-64
2022/01/07 06:21:26;;;;;;;4.00;1.40;;;1.70;99.90;;;1.65;98.58;100787.44;4950737;28;20256;-64
2022/01/07 06:23:53;;;;;;;2.00;1.90;;;1.60;99.90;;;1.69;98.36;100789.00;4955478;28;20227;-64
2022/01/07 06:26:20;;;;;;;5.38;2.67;;;1.70;99.90;;;1.73;98.46;100782.03;4972385;28;20295;-63
2022/01/07 06:28:47;;;;;;;1.58;1.48;;;1.70;99.90;;;1.64;98.38;100790.88;4967372;28;20192;-64
2022/01/07 06:31:14;;;;;;;1.95;1.85;;;1.70;99.90;;;1.69;98.80;100783.03;4973305;28;20219;-65
2022/01/07 06:33:42;;;;;;;4.03;2.40;;;1.70;99.90;;;1.68;99.02;100778.78;4971324;28;20204;-65
2022/01/07 06:36:09;;;;;;;3.47;2.92;;;1.70;99.90;;;1.75;98.66;100777.66;4939943;28;20222;-65
2022/01/07 06:38:35;;;;;;;4.68;3.03;;;1.70;99.90;;;1.79;98.12;100784.41;4972295;28;20208;-65
2022/01/07 06:41:03;;;;;;;2.15;1.27;;;1.70;99.90;;;1.78;98.33;100780.16;4971514;28;20658;-64
2022/01/07 06:43:30;;;;;;;5.70;3.53;;;1.80;99.90;;;1.81;98.02;100780.06;4946328;29;20208;-65
2022/01/07 06:45:57;;;;;;;1.63;1.52;;;1.80;99.90;;;1.80;98.19;100780.94;4953626;28;20233;-65
2022/01/07 06:48:24;;;;;;;1.63;1.48;;;1.80;99.90;;;1.81;98.30;100775.72;4969944;28;20215;-65
2022/01/07 06:50:51;;;;;;;13.25;5.75;;;1.80;99.90;;;1.75;98.78;100770.81;4967286;28;20226;-65
2022/01/07 06:53:18;;;;;;;2.20;2.00;;;1.80;99.90;;;1.80;98.49;100768.06;4991545;28;20204;-64
2022/01/07 06:56:03;;;;;;;8.27;3.25;;;1.80;99.90;;;1.78;98.55;100765.56;4964840;28;20215;-64
2022/01/07 06:58:30;;;;;;;7.22;3.25;;;1.80;99.90;;;1.80;98.60;100768.91;4970635;28;20675;-64
2022/01/07 07:00:57;;;;;;;1.30;1.20;;;1.80;99.90;;;1.84;98.29;100762.78;4954971;28;20227;-64
2022/01/07 07:03:24;;;;;;;6.03;4.90;;;1.80;99.90;;;1.72;99.10;100764.94;4972732;28;20235;-64
2022/01/07 07:05:51;;;;;;;6.88;4.28;;;1.80;99.90;;;1.82;98.79;100774.00;4955361;28;20234;-64
2022/01/07 07:08:18;;;;;;;2.08;1.98;;;1.90;99.90;;;1.86;98.30;100770.44;4954909;28;20210;-64
2022/01/07 07:10:45;;;;;;;3.00;2.28;;;1.80;99.90;;;1.83;98.12;100762.84;4957075;28;20243;-64
2022/01/07 07:13:12;;;;;;;2.75;2.47;;;1.90;99.90;;;1.84;98.79;100759.34;4955746;28;20700;-64
2022/01/07 07:15:39;;;;;;;6.30;4.00;;;1.90;99.90;;;1.82;98.52;100762.00;4972663;28;20217;-64
2022/01/07 07:18:06;;;;;;;6.18;3.65;;;1.90;99.90;;;1.82;98.51;100766.28;4972658;28;20208;-64
2022/01/07 07:20:33;;;;;;;11.63;4.20;;;1.80;99.90;;;1.83;98.86;100768.00;4972001;28;20224;-64
2022/01/07 07:23:00;;;;;;;4.25;3.85;;;1.80;99.90;;;1.84;98.25;100757.63;4952878;28;20636;-64
2022/01/07 07:25:27;;;;;;;9.75;4.85;;;1.90;99.90;;;1.84;98.16;100765.34;4932442;28;20245;-64
2022/01/07 07:27:54;;;;;;;4.80;2.65;;;1.90;99.90;;;1.91;98.26;100760.84;4955489;28;20196;-64
2022/01/07 07:30:20;;;;;;;5.60;2.85;;;1.90;99.90;;;1.96;98.01;100759.78;4955476;28;20220;-64
2022/01/07 07:32:48;;;;;;;3.90;2.70;;;2.00;99.90;;;1.95;97.96;100757.25;4956012;28;20576;-64
2022/01/07 07:37:42;;;;;;;4.72;3.50;;;1.90;99.90;;;1.93;98.53;100752.19;4971455;28;20307;-64
2022/01/07 07:40:09;;;;;;;6.57;3.80;;;2.00;99.90;;;1.98;98.15;100752.84;4970793;28;20319;-64
2022/01/07 07:42:38;;;;;;;2.55;2.35;;;2.00;99.90;;;1.98;97.49;100752.84;4971719;28;20212;-64
2022/01/07 07:45:06;;;;;;;3.75;1.88;;;2.00;99.90;;;1.94;97.90;100746.13;4954936;28;20315;-64
2022/01/07 07:47:36;;;;;;;5.40;3.72;;;2.00;99.90;;;1.97;97.48;100747.75;4966853;28;20224;-63
2022/01/07 07:50:04;;;;;;;3.90;2.55;;;2.00;99.90;;;2.01;97.45;100744.19;4951010;28;20308;-65
2022/01/07 07:52:31;;;;;;;3.35;3.05;;;2.00;99.90;;;1.96;97.82;100740.94;4935045;29;20223;-65
2022/01/07 07:54:58;;;;;;;0.80;0.80;;;2.00;99.90;;;1.99;97.80;100744.25;4966932;28;20291;-64
2022/01/07 07:57:25;;;;;;;4.03;1.92;;;2.00;99.90;;;2.01;97.86;100749.31;4969775;28;20792;-65
2022/01/07 07:59:51;;;;;;;2.00;1.90;;;2.00;99.90;;;2.03;98.09;100755.25;4970948;28;20770;-65
2022/01/07 08:02:18;;;;;;;5.25;2.45;;;2.00;99.90;;;2.03;97.55;100755.25;4972987;28;20298;-65
2022/01/07 08:04:45;;;;;;;5.78;2.33;;;2.00;99.90;;;2.03;97.68;100760.41;4944441;28;20793;-65
2022/01/07 08:07:16;;;;;;;8.73;2.55;;;2.10;99.90;;;2.09;97.23;100762.75;4940689;28;20203;-64
2022/01/07 08:09:45;;;;;;;4.70;3.50;;;2.10;99.90;;;2.11;97.21;100766.13;4953300;28;20243;-65
2022/01/07 08:12:27;;;;;;;4.13;2.28;;;2.10;99.90;;;2.10;97.68;100767.88;4951780;29;20208;-64
2022/01/07 08:17:39;;;;;;;7.22;4.50;;;2.10;99.90;;;2.19;96.96;100751.25;4976052;28;20222;-66
2022/01/07 08:20:07;;;;;;;5.47;3.15;;;2.20;99.90;;;2.20;96.68;100758.94;4971386;28;20224;-64
2022/01/07 08:22:34;;;;;;;1.13;1.10;;;2.20;99.90;;;2.17;96.82;100753.88;4970994;28;20206;-65
2022/01/07 08:25:03;;;;;;;1.73;1.65;;;2.10;99.90;;;2.19;96.54;100756.41;4951258;28;20227;-64
2022/01/07 08:27:29;;;;;;;1.55;1.23;;;2.20;99.90;;;2.23;96.08;100750.25;4959199;28;20216;-66
2022/01/07 08:30:13;;;;;;;2.83;2.17;;;2.20;99.90;;;2.18;96.72;100747.84;4970191;28;20235;-65
2022/01/07 08:35:27;;;;;;;5.97;2.80;;;2.20;99.90;;;2.28;95.78;100741.47;4970106;28;20214;-66
2022/01/07 08:37:54;;;;;;;3.25;1.83;;;2.30;99.90;;;2.29;95.42;100743.16;4960449;28;20601;-64
2022/01/07 08:40:21;;;;;;;4.70;3.45;;;2.30;99.90;;;2.33;95.27;100749.03;4935828;29;20232;-65
2022/01/07 08:42:49;;;;;;;2.70;2.13;;;2.30;99.90;;;2.36;95.46;100746.34;4968578;28;20204;-65
2022/01/07 08:45:16;;;;;;;1.40;1.30;;;2.30;99.90;;;2.29;95.72;100734.59;4968887;28;20234;-66
2022/01/07 08:47:43;;;;;;;2.80;2.53;;;2.30;99.90;;;2.35;95.03;100744.66;4953285;28;20200;-65
2022/01/07 08:50:10;;;;;;;0.85;0.85;;;2.40;99.90;;;2.34;94.96;100730.94;4971454;28;20589;-65
2022/01/07 08:52:36;;;;;;;5.07;2.80;;;2.40;99.90;;;2.41;94.67;100728.16;4970192;28;20235;-65
2022/01/07 08:55:04;;;;;;;4.85;3.35;;;2.40;99.90;;;2.49;94.27;100728.69;4968817;28;20210;-65
2022/01/07 08:57:31;;;;;;;1.75;1.42;;;2.50;99.90;;;2.45;94.18;100727.97;4970510;28;20209;-65
2022/01/07 08:59:58;;;;;;;5.50;2.13;;;2.50;99.90;;;2.45;94.14;100722.81;4970514;28;20235;-65
2022/01/07 09:02:25;;;;;;;3.30;1.65;;;2.40;99.90;;;2.46;94.10;100719.34;4969721;28;20606;-65
2022/01/07 09:04:52;;;;;;;5.30;2.50;;;2.50;99.90;;;2.43;93.95;100723.78;4971269;28;20334;-65
2022/01/07 09:07:19;;;;;;;9.10;4.63;;;2.50;99.90;;;2.50;93.71;100710.63;4971535;28;20287;-65
2022/01/07 09:09:46;;;;;;;1.95;1.85;;;2.50;99.90;;;2.53;94.00;100710.50;4972719;28;20238;-65
2022/01/07 09:12:13;;;;;;;2.33;2.15;;;2.50;99.90;;;2.53;93.62;100705.34;4975401;28;20204;-65
2022/01/07 09:14:40;;;;;;;4.82;3.50;;;2.50;99.90;;;2.54;93.88;100712.16;4973823;28;20200;-64
2022/01/07 09:17:07;;;;;;;2.00;1.40;;;2.60;99.90;;;2.52;94.07;100707.97;4984032;28;20325;-65
2022/01/07 09:19:34;;;;;;;3.13;2.35;;;2.60;99.90;;;2.48;93.91;100706.41;4953715;28;20205;-65
2022/01/07 09:22:02;;;;;;;3.55;2.05;;;2.60;99.90;;;2.55;94.34;100710.44;4946731;28;20255;-65
2022/01/07 09:24:29;;;;;;;2.05;1.95;;;2.60;99.90;;;2.60;92.94;100706.78;4956277;28;20299;-66
2022/01/07 09:26:58;;;;;;;4.30;2.60;;;2.60;99.90;;;2.52;94.15;100708.81;4975369;28;20212;-67
2022/01/07 09:29:27;;;;;;;10.70;4.40;;;2.60;99.90;;;2.53;94.54;100705.34;4957571;28;20205;-66
2022/01/07 09:31:55;;;;;;;2.50;1.80;;;2.60;99.90;;;2.59;93.35;100705.13;4974662;28;20204;-66
2022/01/07 09:34:22;;;;;;;3.92;2.88;;;2.60;99.90;;;2.58;94.31;100707.75;4972917;28;20235;-63
2022/01/07 09:36:55;;;;;;;2.90;1.85;;;2.60;99.90;;;2.64;93.47;100705.75;4973438;28;20287;-64
2022/01/07 09:39:22;;;;;;;2.78;1.38;;;2.60;99.90;;;2.69;93.77;100693.56;4973362;28;20318;-65
2022/01/07 09:41:49;;;;;;;3.78;1.75;;;2.70;99.90;;;2.74;92.99;100699.38;4973335;28;20223;-64
2022/01/07 09:44:16;;;;;;;3.78;2.67;;;2.70;99.90;;;2.76;93.08;100702.75;4974895;28;20200;-64
2022/01/07 09:46:44;;;;;;;1.27;0.85;;;2.70;99.90;;;2.69;93.51;100698.72;4974270;28;20314;-64
2022/01/07 09:49:11;;;;;;;7.03;2.70;;;2.70;99.90;;;2.82;93.26;100689.59;4962590;28;20298;-64
2022/01/07 09:51:39;;;;;;;5.72;2.65;;;2.80;99.90;;;2.77;93.14;100682.97;4936797;29;20225;-65
2022/01/07 09:54:08;;;;;;;5.35;3.58;;;2.80;99.90;;;2.66;93.44;100682.53;4936226;28;20217;-64
2022/01/07 09:56:35;;;;;;;6.20;2.58;;;2.80;99.90;;;2.78;93.15;100690.63;4953596;28;20211;-65
2022/01/07 09:59:06;;;;;;;9.75;4.15;;;2.80;99.90;;;2.71;94.21;100690.91;4969795;28;20585;-65
2022/01/07 10:01:59;;;;;;;1.70;1.60;;;2.70;99.90;;;2.73;93.37;100681.38;4973339;28;20749;-67
2022/01/07 10:04:35;;;;;;;5.88;1.70;;;2.80;99.90;;;2.71;93.78;100689.19;4954067;28;20205;-67
2022/01/07 10:07:21;;;;;;;4.25;2.70;;;2.70;99.90;;;2.75;93.87;100688.16;4973356;28;20223;-65
2022/01/07 10:10:07;;;;;;;3.03;1.58;;;2.70;99.90;;;2.77;93.75;100696.66;4955962;28;20326;-67
2022/01/07 10:13:06;;;;;;;3.25;1.73;;;2.70;99.90;;;2.67;94.16;100684.19;4956971;28;20607;-65
2022/01/07 10:15:40;;;;;;;1.90;1.58;;;2.80;99.90;;;2.70;94.03;100684.94;4975078;28;20203;-65
2022/01/07 10:18:13;;;;;;;2.88;1.40;;;2.70;99.90;;;2.66;94.86;100688.50;4973703;28;20207;-67
2022/01/07 10:20:42;;;;;;;0.40;0.40;;;2.70;99.90;;;2.69;94.77;100690.13;4955179;28;20264;-65
2022/01/07 10:23:26;;;;;;;3.33;1.65;;;2.70;99.90;;;2.70;94.04;100684.94;4972864;28;20613;-65
2022/01/07 10:25:56;;;;;;;0.55;0.55;;;2.70;99.90;;;2.75;94.11;100677.00;4971946;28;20230;-65
2022/01/07 10:28:31;;;;;;;2.63;2.38;;;2.80;99.90;;;2.89;93.70;100662.72;4937740;29;20287;-65
2022/01/07 10:31:02;;;;;;;3.08;2.00;;;2.90;99.90;;;2.93;92.75;100659.09;4963082;28;20229;-65
2022/01/07 10:33:41;;;;;;;1.38;1.35;;;2.90;99.90;;;3.03;91.97;100657.81;4977052;28;20234;-65
2022/01/07 10:36:08;;;;;;;1.23;1.13;;;3.00;99.90;;;3.05;91.56;100650.88;4960648;28;20212;-65